Inyokern, CA

8:50 PM PDT on August 21, 2017 (GMT -0700)
South of Inyokern | | Change Station

Elev 2500 ft 35.63 °N, 117.80 °W | Updated 8 seconds ago

Partly Cloudy
Partly Cloudy
84.1 °F
Feels Like 82 °F
N
15.0
Wind Variable Wind from ENE
Gusts 18.0 mph

Today
High -- | Low -- °F
--% Chance of Precip.
Yesterday
High -- | Low -- °F
Precip. -- in
Pressure 29.89 in
Visibility 10.0 miles
Clouds Scattered Clouds 11000 ft
Heat Index 82 °F
Dew Point 49 °F
Humidity 30%
Rainfall 0.00 in
Snow Depth Not available.
6:15 AM 7:32 PM
New Moon, 0% visible
METAR KNID 220256Z 08022G35KT 10SM -RA SCT110 32/09 A2996 RMK AO2 PK WND 07035/0249 RAB47 SLP122 CB DSNT E STNRY P0000 60000 T03170094 53006 $
Pressure 29.89 in
Visibility 10.0 miles
Clouds Scattered Clouds 11000 ft
Heat Index 82 °F
Dew Point 49 °F
Humidity 30%
Rainfall 0.00 in
Snow Depth Not available.
6:15 AM 7:32 PM
New Moon, 0% visible
METAR KNID 220256Z 08022G35KT 10SM -RA SCT110 32/09 A2996 RMK AO2 PK WND 07035/0249 RAB47 SLP122 CB DSNT E STNRY P0000 60000 T03170094 53006 $

Get Severe Weather Alerts

Thanks for signing up!

Be on the lookout for a verification email in your inbox.

You'll start receiving the daily forecast at 6 AM.

×

10-Day Weather Forecast

Almanac

Astronomy

Aug. 21, 2017 Rise Set
Actual Time
Civil Twilight
Nautical Twilight
Astronomical Twilight
Moon
Length of Visible Light
Length of Day
Tomorrow will be .
, % of the Moon is Illuminated

Today's Extremes

State Highs State Lows

Community

WunderPhotos

Category 6

Welcome to Category 6. This is the collective home for Weather Underground's featured writeups by Dr. Jeff Masters (right), Bob Henson (left), Chris Burt, and other regular contributors.

Nearby

Air Quality

  Air Quality AQ Index Pollutant
Not available.

Snow Depth

Station Depth Elevation

Earthquake Activity

City Distance Mag. Time & Date
Minimum magnitude displayed is 2.5.

Coastal Water Temperatures

Place Temperature

Stations

Nearby Weather Stations

Station Location Temp. Windchill Dew Point Humidity Wind Precip. Elev Updated Type
                   

Watches & Warnings

There are currently no watches in effect.